Time;durP1;ratioP1;P1;durP2;ratioP2;P2;SDS_P1;SDS_P2;PMS_P1;PMS_P2;Temp;Humidity;BMP_temperature;BMP_pressure;BME280_temperature;BME280_humidity;BME280_pressure;Samples;Min_cycle;Max_cycle;Signal;HPM_P1;HPM_P2
2021/08/03 00:00:28;;;;;;;0.40;0.20;;;;;;;16.03;100.00;100100.53;4983692;28;21052;-55
2021/08/03 00:02:58;;;;;;;0.40;0.20;;;;;;;15.86;100.00;100105.94;4994790;28;20454;-55
2021/08/03 00:05:27;;;;;;;0.40;0.20;;;;;;;15.89;100.00;100097.75;4985026;28;20963;-55
2021/08/03 00:08:03;;;;;;;0.40;0.20;;;;;;;15.90;100.00;100095.00;4991512;28;20457;-55
2021/08/03 00:10:30;;;;;;;0.40;0.20;;;;;;;15.86;100.00;100095.22;4994128;28;20551;-55
2021/08/03 00:13:00;;;;;;;0.40;0.20;;;;;;;15.79;100.00;100096.53;4981414;28;20457;-55
2021/08/03 00:15:28;;;;;;;0.40;0.20;;;;;;;15.81;100.00;100091.94;4982345;28;20770;-55
2021/08/03 00:17:55;;;;;;;4.03;0.93;;;;;;;15.79;100.00;100083.13;4993582;28;20872;-55
2021/08/03 00:20:24;;;;;;;0.40;0.20;;;;;;;15.81;100.00;100091.94;4994218;28;20482;-56
2021/08/03 00:22:59;;;;;;;1.07;0.93;;;;;;;15.89;100.00;100084.34;4994320;28;20457;-55
2021/08/03 00:25:26;;;;;;;0.40;0.23;;;;;;;15.61;100.00;100068.84;4980825;28;20441;-55
2021/08/03 00:27:54;;;;;;;0.40;0.30;;;;;;;15.78;100.00;100074.22;4994352;28;20503;-55
2021/08/03 00:30:23;;;;;;;0.40;0.20;;;;;;;15.89;100.00;100081.66;4993126;28;20493;-55
2021/08/03 00:32:52;;;;;;;0.40;0.30;;;;;;;15.84;100.00;100078.38;4982332;28;20825;-55
2021/08/03 00:35:19;;;;;;;0.40;0.20;;;;;;;15.87;100.00;100079.06;4993714;28;20511;-56
2021/08/03 00:37:45;;;;;;;0.40;0.20;;;;;;;15.83;100.00;100074.81;4985360;28;20459;-55
2021/08/03 00:40:15;;;;;;;0.40;0.30;;;;;;;15.90;100.00;100076.22;4993114;22;21038;-76
2021/08/03 00:42:43;;;;;;;14.83;4.07;;;;;;;15.86;100.00;100076.47;4992118;28;20477;-76
2021/08/03 00:45:10;;;;;;;0.40;0.30;;;;;;;15.78;100.00;100076.03;4993824;28;20454;-76
2021/08/03 00:47:37;;;;;;;2.57;1.27;;;;;;;15.82;100.00;100062.38;4992621;28;20512;-76
2021/08/03 00:50:05;;;;;;;0.40;0.20;;;;;;;15.92;100.00;100068.09;4989881;28;20526;-76
2021/08/03 00:52:32;;;;;;;0.70;0.70;;;;;;;15.97;100.00;100069.56;4973097;28;20475;-76
2021/08/03 00:54:59;;;;;;;0.40;0.20;;;;;;;15.93;100.00;100064.47;4987927;28;20505;-77
2021/08/03 00:57:26;;;;;;;0.40;0.30;;;;;;;15.92;100.00;100076.16;4983884;28;20449;-77
2021/08/03 00:59:53;;;;;;;1.37;1.27;;;;;;;15.89;100.00;100073.59;4993406;28;20477;-77
2021/08/03 01:02:19;;;;;;;0.40;0.20;;;;;;;15.89;100.00;100081.66;4992644;28;20482;-77
2021/08/03 01:04:46;;;;;;;0.40;0.20;;;;;;;15.90;100.00;100076.22;4994003;28;20460;-77
2021/08/03 01:07:39;;;;;;;0.40;0.20;;;;;;;15.86;100.00;100079.16;4994037;28;20453;-77
2021/08/03 01:10:27;;;;;;;0.40;0.20;;;;;;;15.82;100.00;100075.78;4971168;28;20489;-77
2021/08/03 01:13:07;;;;;;;0.40;0.20;;;;;;;15.56;100.00;100071.75;4979447;28;20476;-77
2021/08/03 01:15:51;;;;;;;0.40;0.40;;;;;;;15.78;100.00;100073.34;4976511;28;20455;-77
2021/08/03 01:18:40;;;;;;;0.40;0.20;;;;;;;15.95;100.00;100081.34;4973004;28;20570;-77
2021/08/03 01:21:54;;;;;;;0.40;0.20;;;;;;;15.92;100.00;100074.34;4980254;28;20449;-77
2021/08/03 01:24:47;;;;;;;0.40;0.20;;;;;;;15.89;100.00;100068.25;4944336;28;20509;-77
2021/08/03 01:27:39;;;;;;;0.40;0.20;;;;;;;15.88;100.00;100074.56;4979124;28;20853;-77
2021/08/03 01:30:06;;;;;;;0.40;0.20;;;;;;;15.89;100.00;100082.50;4980731;28;20482;-78
2021/08/03 01:32:39;;;;;;;0.40;0.20;;;;;;;15.81;100.00;100083.91;4991644;28;21046;-77
2021/08/03 01:35:07;;;;;;;0.40;0.20;;;;;;;15.76;100.00;100085.94;4979539;28;20450;-77
2021/08/03 01:37:34;;;;;;;2.53;0.73;;;;;;;15.55;100.00;100064.66;4981151;28;20465;-77
2021/08/03 01:40:06;;;;;;;0.40;0.20;;;;;;;15.55;100.00;100071.84;4992093;28;20457;-77
2021/08/03 01:42:38;;;;;;;0.40;0.20;;;;;;;15.67;100.00;100064.06;4991993;28;20466;-77
2021/08/03 01:45:07;;;;;;;0.40;0.20;;;;;;;15.56;100.00;100066.41;4982950;28;20504;-77
2021/08/03 01:47:34;;;;;;;0.40;0.30;;;;;;;15.49;100.00;100066.78;4993085;28;20446;-77
2021/08/03 01:50:01;;;;;;;0.60;0.60;;;;;;;15.13;100.00;100056.19;4976764;28;20552;-77
2021/08/03 01:52:31;;;;;;;0.40;0.20;;;;;;;15.28;100.00;100068.78;4982403;28;20466;-77
2021/08/03 01:54:58;;;;;;;0.40;0.20;;;;;;;14.85;100.00;100062.94;4991766;28;20457;-77
2021/08/03 01:57:25;;;;;;;0.40;0.20;;;;;;;14.66;100.00;100054.06;4990435;28;20457;-77
2021/08/03 01:59:54;;;;;;;0.40;0.20;;;;;;;14.73;100.00;100056.38;4993217;28;20458;-76
2021/08/03 02:02:23;;;;;;;0.40;0.20;;;;;;;14.47;100.00;100056.78;4992792;28;20517;-77
2021/08/03 02:04:51;;;;;;;0.40;0.20;;;;;;;14.30;100.00;100059.38;4992885;28;20512;-77
2021/08/03 02:07:20;;;;;;;0.40;0.20;;;;;;;14.36;100.00;100057.25;4992960;28;20508;-77
2021/08/03 02:09:48;;;;;;;0.40;0.20;;;;;;;14.67;100.00;100067.38;4991463;28;20525;-77
2021/08/03 02:12:15;;;;;;;0.50;0.47;;;;;;;14.80;100.00;100064.94;4994017;28;20477;-77
2021/08/03 02:14:45;;;;;;;0.40;0.40;;;;;;;14.82;100.00;100063.94;4991549;28;20871;-77
2021/08/03 02:17:20;;;;;;;0.40;0.20;;;;;;;14.73;100.00;100064.41;4995658;28;20454;-78
2021/08/03 02:19:48;;;;;;;0.40;0.20;;;;;;;14.73;100.00;100061.72;4989258;28;20485;-77
2021/08/03 02:22:17;;;;;;;0.40;0.30;;;;;;;14.84;100.00;100058.53;4990344;28;20532;-78
2021/08/03 02:24:44;;;;;;;0.40;0.20;;;;;;;14.86;100.00;100053.94;4996774;28;20492;-77
2021/08/03 02:27:11;;;;;;;0.40;0.40;;;;;;;14.81;100.00;100047.97;4996701;28;20485;-77
2021/08/03 02:29:41;;;;;;;4.10;0.90;;;;;;;14.76;100.00;100047.31;4995472;28;20552;-77
2021/08/03 02:32:24;;;;;;;0.40;0.20;;;;;;;14.81;100.00;100047.97;4995442;28;20895;-77
2021/08/03 02:35:29;;;;;;;0.40;0.20;;;;;;;14.76;100.00;100045.50;4996543;28;20954;-77
2021/08/03 02:38:05;;;;;;;0.40;0.20;;;;;;;14.79;100.00;100045.34;4936364;29;20464;-77
2021/08/03 02:40:32;;;;;;;0.63;0.63;;;;;;;14.78;100.00;100042.75;4988046;28;20883;-77
2021/08/03 02:43:00;;;;;;;0.40;0.20;;;;;;;14.87;100.00;100039.63;4996225;28;20504;-77
2021/08/03 02:45:28;;;;;;;0.40;0.20;;;;;;;14.88;100.00;100036.00;4983831;28;20958;-77
2021/08/03 02:48:09;;;;;;;0.40;0.20;;;;;;;14.80;100.00;100025.69;4996434;28;20446;-77
2021/08/03 02:50:36;;;;;;;2.20;2.10;;;;;;;14.86;100.00;100034.34;4988281;28;20580;-77
2021/08/03 02:53:14;;;;;;;0.40;0.20;;;;;;;14.84;100.00;100029.09;4990177;28;20508;-78
2021/08/03 02:55:55;;;;;;;0.40;0.20;;;;;;;14.85;100.00;100035.31;4995307;28;20526;-77
2021/08/03 02:58:28;;;;;;;0.40;0.20;;;;;;;14.77;100.00;100038.34;4982950;28;20969;-77
2021/08/03 03:00:56;;;;;;;1.93;1.90;;;;;;;14.76;100.00;100032.13;4982512;28;20501;-77
2021/08/03 03:03:25;;;;;;;0.40;0.20;;;;;;;14.82;100.00;100023.81;4982723;28;20473;-77
2021/08/03 03:05:58;;;;;;;0.40;0.20;;;;;;;14.86;100.00;100023.66;4995744;28;20460;-78
2021/08/03 03:08:27;;;;;;;0.40;0.20;;;;;;;14.82;100.00;100029.16;4996065;28;20520;-77
2021/08/03 03:10:57;;;;;;;0.40;0.20;;;;;;;14.97;100.00;100035.56;4982951;28;20520;-77
2021/08/03 03:13:23;;;;;;;0.60;0.60;;;;;;;15.02;100.00;100030.81;4987825;28;20823;-77
2021/08/03 03:15:51;;;;;;;0.40;0.20;;;;;;;14.98;100.00;100029.25;4984606;28;21074;-77
2021/08/03 03:18:19;;;;;;;0.40;0.20;;;;;;;14.96;100.00;100027.59;4967760;28;20447;-77
2021/08/03 03:20:47;;;;;;;0.50;0.40;;;;;;;14.91;100.00;100027.81;4973161;28;20800;-77
2021/08/03 03:23:17;;;;;;;0.40;0.20;;;;;;;14.87;100.00;100023.56;4995385;28;20469;-77
2021/08/03 03:25:44;;;;;;;0.80;0.80;;;;;;;14.93;100.00;100031.28;4982693;28;20454;-77
2021/08/03 03:28:12;;;;;;;0.37;0.20;;;;;;;14.91;100.00;100032.31;4985396;28;20475;-77
2021/08/03 03:30:40;;;;;;;0.40;0.30;;;;;;;14.86;100.00;100019.16;4992459;28;20489;-77
2021/08/03 03:33:09;;;;;;;0.60;0.57;;;;;;;14.85;100.00;100022.78;4994355;28;20473;-77
2021/08/03 03:35:37;;;;;;;0.40;0.20;;;;;;;14.92;100.00;100034.03;4995518;28;20535;-77
2021/08/03 03:38:04;;;;;;;0.40;0.20;;;;;;;14.91;100.00;100033.16;4994110;28;20492;-77
2021/08/03 03:40:32;;;;;;;0.40;0.30;;;;;;;14.82;100.00;100034.53;4990215;28;20494;-77
2021/08/03 03:42:59;;;;;;;0.40;0.20;;;;;;;14.85;100.00;100024.59;4965350;28;20468;-77
2021/08/03 03:45:26;;;;;;;0.40;0.20;;;;;;;14.77;100.00;100023.16;4972779;28;20501;-76
2021/08/03 03:48:02;;;;;;;0.40;0.20;;;;;;;14.81;100.00;100026.56;4988519;28;20454;-77
2021/08/03 03:50:35;;;;;;;0.40;0.20;;;;;;;14.90;100.00;100027.91;4986849;28;20998;-77
2021/08/03 03:53:11;;;;;;;0.40;0.20;;;;;;;14.92;100.00;100031.34;4989911;28;20882;-77
2021/08/03 03:55:41;;;;;;;0.40;0.20;;;;;;;14.86;100.00;100021.84;4993964;28;21001;-77
2021/08/03 03:58:08;;;;;;;0.40;0.20;;;;;;;15.00;100.00;100013.97;4991127;28;20923;-77
2021/08/03 04:00:37;;;;;;;2.60;0.67;;;;;;;14.97;100.00;100010.59;4993658;28;20486;-77
2021/08/03 04:03:05;;;;;;;0.40;0.20;;;;;;;14.80;100.00;100006.06;4993575;28;20473;-77
2021/08/03 04:05:36;;;;;;;0.83;0.83;;;;;;;14.95;100.00;100001.78;4993739;28;20460;-77
2021/08/03 04:08:03;;;;;;;0.40;0.20;;;;;;;14.94;100.00;100010.72;4988942;28;20600;-77
2021/08/03 04:10:34;;;;;;;0.40;0.20;;;;;;;15.05;100.00;100017.28;4985413;28;20536;-77
2021/08/03 04:13:01;;;;;;;0.40;0.20;;;;;;;15.07;100.00;100027.91;4994521;28;20519;-77
2021/08/03 04:15:28;;;;;;;0.40;0.20;;;;;;;15.05;100.00;100022.63;4994762;28;20454;-77
2021/08/03 04:17:55;;;;;;;0.40;0.20;;;;;;;15.16;100.00;100015.84;4993369;28;20454;-77
2021/08/03 04:20:22;;;;;;;0.40;0.20;;;;;;;15.03;100.00;100016.47;4993409;28;20844;-77
2021/08/03 04:22:49;;;;;;;0.40;0.20;;;;;;;15.27;100.00;100010.81;4986951;28;20470;-78
2021/08/03 04:25:15;;;;;;;0.60;0.60;;;;;;;15.23;100.00;100004.75;4961199;28;20443;-77
2021/08/03 04:27:42;;;;;;;0.40;0.20;;;;;;;15.18;100.00;100008.59;4980756;28;20791;-77
2021/08/03 04:30:12;;;;;;;0.40;0.20;;;;;;;15.21;100.00;100013.78;4992831;28;20776;-77
2021/08/03 04:32:38;;;;;;;0.40;0.20;;;;;;;15.30;100.00;100013.31;4982145;28;20540;-78
2021/08/03 04:35:06;;;;;;;0.40;0.30;;;;;;;15.36;100.00;100018.38;4991953;28;20970;-77
2021/08/03 04:37:38;;;;;;;1.17;1.17;;;;;;;15.25;100.00;100007.34;4994046;28;20504;-77
2021/08/03 04:40:05;;;;;;;1.50;0.73;;;;;;;15.22;100.00;99999.50;4992843;28;20840;-77
2021/08/03 04:42:32;;;;;;;0.40;0.20;;;;;;;15.40;100.00;100001.19;4992889;28;20970;-77
2021/08/03 04:44:59;;;;;;;0.60;0.50;;;;;;;15.49;100.00;100007.84;4981169;28;20991;-77
2021/08/03 04:47:25;;;;;;;0.40;0.20;;;;;;;15.42;100.00;100012.69;4994264;28;20445;-78
2021/08/03 04:49:52;;;;;;;0.40;0.30;;;;;;;15.50;100.00;100004.25;4977235;28;20466;-77
2021/08/03 04:52:22;;;;;;;0.40;0.20;;;;;;;15.51;100.00;100014.03;4982843;28;20505;-77
2021/08/03 04:54:49;;;;;;;0.40;0.30;;;;;;;15.52;100.00;100005.91;4992916;28;20457;-77
2021/08/03 04:57:16;;;;;;;0.40;0.20;;;;;;;15.39;100.00;100018.22;4990347;28;20457;-78
2021/08/03 04:59:42;;;;;;;0.40;0.20;;;;;;;15.33;100.00;100007.81;4993799;28;20453;-77
2021/08/03 05:02:09;;;;;;;0.40;0.20;;;;;;;15.45;100.00;100014.31;4993708;28;20500;-77
2021/08/03 05:04:35;;;;;;;0.40;0.30;;;;;;;15.40;100.00;100017.25;4992951;28;20457;-77
2021/08/03 05:07:04;;;;;;;0.40;0.20;;;;;;;15.45;100.00;100020.53;4994250;28;20458;-77
2021/08/03 05:09:31;;;;;;;0.40;0.20;;;;;;;15.53;100.00;100022.84;4992516;28;20450;-77
2021/08/03 05:11:58;;;;;;;7.17;1.17;;;;;;;15.62;100.00;100015.22;4993580;28;20539;-77
2021/08/03 05:14:24;;;;;;;0.40;0.20;;;;;;;15.59;100.00;100015.34;4992587;28;20496;-77
2021/08/03 05:16:51;;;;;;;2.83;2.50;;;;;;;15.76;100.00;100009.09;4992413;28;20472;-78
2021/08/03 05:19:17;;;;;;;0.40;0.23;;;;;;;15.78;100.00;99998.31;4993337;28;20912;-77
2021/08/03 05:21:44;;;;;;;1.33;1.23;;;;;;;15.82;100.00;100005.22;4992148;28;20942;-78
2021/08/03 05:24:11;;;;;;;1.23;1.23;;;;;;;16.04;100.00;100005.78;4993658;28;20539;-77
2021/08/03 05:26:37;;;;;;;0.40;0.20;;;;;;;16.08;100.00;99995.72;4992251;28;20865;-77
2021/08/03 05:29:04;;;;;;;0.40;0.20;;;;;;;16.50;100.00;100003.16;4992089;28;21025;-77
2021/08/03 05:31:31;;;;;;;0.40;0.30;;;;;;;16.15;100.00;99999.78;4992154;28;20493;-78
2021/08/03 05:33:58;;;;;;;0.40;0.20;;;;;;;16.43;100.00;99999.09;4993434;28;20560;-77
2021/08/03 05:36:24;;;;;;;0.40;0.20;;;;;;;16.05;100.00;99991.41;4991982;28;20954;-78
2021/08/03 05:38:51;;;;;;;0.40;0.20;;;;;;;15.95;100.00;100000.91;4992797;28;20445;-77
2021/08/03 05:41:17;;;;;;;0.73;0.67;;;;;;;16.23;100.00;99998.41;4993191;28;20441;-78
2021/08/03 05:43:44;;;;;;;0.63;0.63;;;;;;;16.51;100.00;100002.19;4992182;28;20469;-79
2021/08/03 05:46:11;;;;;;;0.37;0.27;;;;;;;16.22;100.00;99985.97;4985333;28;20485;-78
2021/08/03 05:48:37;;;;;;;5.93;1.70;;;;;;;16.27;100.00;99991.91;4993280;28;20534;-77
2021/08/03 05:51:04;;;;;;;1.83;1.80;;;;;;;16.01;100.00;99984.47;4980895;28;20522;-79
2021/08/03 05:53:30;;;;;;;0.77;0.77;;;;;;;16.01;100.00;99992.50;4992470;28;20478;-77
2021/08/03 05:55:57;;;;;;;5.40;1.23;;;;;;;16.18;100.00;99994.28;4990904;28;20461;-78
2021/08/03 05:58:24;;;;;;;0.53;0.47;;;;;;;16.26;100.00;99994.69;4991249;28;21024;-78
2021/08/03 06:00:50;;;;;;;0.40;0.30;;;;;;;16.19;100.00;99996.88;4979625;28;20439;-79
2021/08/03 06:03:17;;;;;;;3.90;0.70;;;;;;;16.12;100.00;100002.66;4992774;28;20833;-78
2021/08/03 06:05:45;;;;;;;0.40;0.20;;;;;;;16.10;100.00;99994.69;4992228;28;20521;-78
2021/08/03 06:08:14;;;;;;;0.57;0.53;;;;;;;16.47;100.00;100006.03;4991758;28;20453;-77
2021/08/03 06:10:44;;;;;;;0.40;0.20;;;;;;;16.30;100.00;100006.97;4992016;28;20563;-78
2021/08/03 06:13:12;;;;;;;4.40;1.17;;;;;;;16.57;100.00;100004.53;4992347;28;20461;-77
2021/08/03 06:15:42;;;;;;;0.40;0.20;;;;;;;16.55;100.00;100006.44;4993461;28;20508;-76
2021/08/03 06:18:13;;;;;;;0.40;0.20;;;;;;;16.53;100.00;100009.22;4992032;28;20990;-77
2021/08/03 06:20:43;;;;;;;0.40;0.20;;;;;;;16.71;100.00;99991.19;4992861;28;20461;-78
2021/08/03 06:23:12;;;;;;;1.90;0.97;;;;;;;16.54;100.00;100002.03;4991656;28;20852;-78
2021/08/03 06:25:40;;;;;;;0.40;0.20;;;;;;;16.97;100.00;100002.22;4991354;28;20449;-78
2021/08/03 06:28:07;;;;;;;0.40;0.33;;;;;;;17.05;100.00;100010.69;4991365;28;20489;-77
2021/08/03 06:30:40;;;;;;;0.77;0.77;;;;;;;17.18;100.00;100009.00;4991395;28;20457;-77
2021/08/03 06:33:07;;;;;;;0.40;0.20;;;;;;;17.27;100.00;100018.31;4993117;28;20477;-77
2021/08/03 06:35:34;;;;;;;0.40;0.20;;;;;;;16.90;100.00;100011.59;4993012;28;20488;-78
2021/08/03 06:38:00;;;;;;;0.40;0.20;;;;;;;16.82;100.00;100009.38;4991692;28;20473;-77
2021/08/03 06:40:31;;;;;;;0.40;0.30;;;;;;;16.94;100.00;100002.41;4991416;28;20457;-77
2021/08/03 06:43:06;;;;;;;1.43;1.43;;;;;;;16.96;100.00;100012.09;4991426;28;20843;-77
2021/08/03 06:45:34;;;;;;;0.50;0.40;;;;;;;16.81;100.00;100003.13;4981259;28;20465;-77
2021/08/03 06:48:22;;;;;;;0.50;0.40;;;;;;;17.10;100.00;100008.59;4991529;28;20516;-77
2021/08/03 06:51:13;;;;;;;0.40;0.20;;;;;;;16.80;100.00;100016.66;4981722;28;20568;-77
2021/08/03 06:53:41;;;;;;;0.40;0.20;;;;;;;17.15;100.00;100007.38;5015279;23;20908;-80
2021/08/03 06:56:09;;;;;;;1.17;1.17;;;;;;;16.93;100.00;100016.78;5044542;28;20470;-81
2021/08/03 06:58:45;;;;;;;2.20;1.90;;;;;;;16.84;100.00;100013.69;5047374;28;20475;-80
2021/08/03 07:01:22;;;;;;;0.40;0.20;;;;;;;16.97;100.00;100021.88;5048901;28;20447;-80
2021/08/03 07:03:58;;;;;;;0.40;0.20;;;;;;;16.84;100.00;100007.44;5045632;28;20458;-80
2021/08/03 07:06:27;;;;;;;0.50;0.50;;;;;;;16.87;100.00;100021.59;5041590;28;20545;-80
2021/08/03 07:08:54;;;;;;;0.40;0.30;;;;;;;16.73;100.00;100012.59;5032178;28;20452;-80
2021/08/03 07:11:22;;;;;;;0.40;0.20;;;;;;;16.80;100.00;100013.97;5039399;28;20486;-80
2021/08/03 07:13:48;;;;;;;1.63;0.87;;;;;;;16.95;100.00;100025.63;5046230;28;20873;-81
2021/08/03 07:16:15;;;;;;;0.97;0.87;;;;;;;17.02;100.00;100024.31;5041764;28;20458;-81
2021/08/03 07:18:42;;;;;;;0.40;0.20;;;;;;;16.94;100.00;100022.06;5042593;28;20458;-80
2021/08/03 07:21:11;;;;;;;0.67;0.67;;;;;;;16.85;100.00;100020.78;5049613;28;20846;-81
2021/08/03 07:23:42;;;;;;;0.53;0.53;;;;;;;16.87;100.00;100018.91;5048833;28;20462;-80
2021/08/03 07:26:09;;;;;;;0.63;0.57;;;;;;;17.26;100.00;100024.66;5034524;28;20447;-80
2021/08/03 07:28:35;;;;;;;0.57;0.57;;;;;;;17.29;100.00;100019.09;5048789;28;20410;-81
2021/08/03 07:31:02;;;;;;;0.40;0.20;;;;;;;16.93;100.00;100012.28;5041141;28;20491;-81
2021/08/03 07:33:29;;;;;;;1.60;0.97;;;;;;;17.03;100.00;100026.03;5041654;28;20821;-81
2021/08/03 07:35:55;;;;;;;0.40;0.30;;;;;;;17.01;100.00;100031.50;5044295;28;20461;-81
2021/08/03 07:38:23;;;;;;;0.77;0.77;;;;;;;16.98;100.00;100002.13;5027894;28;20440;-80
2021/08/03 07:40:49;;;;;;;0.40;0.27;;;;;;;17.37;100.00;100028.41;5047647;28;20502;-80
2021/08/03 07:43:16;;;;;;;0.40;0.20;;;;;;;17.15;100.00;100028.00;5047677;28;20524;-81
2021/08/03 07:45:42;;;;;;;0.40;0.20;;;;;;;16.99;100.00;100021.78;5047708;28;20505;-80
2021/08/03 07:48:09;;;;;;;2.20;1.07;;;;;;;17.03;100.00;100023.34;5047787;28;20481;-81
2021/08/03 07:50:36;;;;;;;0.40;0.20;;;;;;;17.15;100.00;100025.31;5042948;28;20480;-81
2021/08/03 07:53:03;;;;;;;0.40;0.20;;;;;;;17.05;100.00;100016.06;5052830;28;20490;-82
2021/08/03 07:55:30;;;;;;;2.60;2.40;;;;;;;17.10;100.00;100012.13;5042790;28;20491;-82
2021/08/03 07:57:56;;;;;;;0.80;0.77;;;;;;;17.13;100.00;100022.72;5050293;28;20451;-82
2021/08/03 08:00:23;;;;;;;0.47;0.40;;;;;;;17.11;100.00;100007.63;5042637;28;20508;-82
2021/08/03 08:02:50;;;;;;;0.40;0.20;;;;;;;17.13;100.00;100005.72;5039912;28;20444;-82
2021/08/03 08:05:18;;;;;;;0.40;0.20;;;;;;;16.83;100.00;100013.78;5036656;28;20474;-82
2021/08/03 08:07:44;;;;;;;0.40;0.20;;;;;;;16.92;100.00;100010.56;5048625;28;20524;-82
2021/08/03 08:10:11;;;;;;;2.60;1.03;;;;;;;16.67;100.00;100004.88;5035723;28;20866;-82
2021/08/03 08:12:38;;;;;;;0.53;0.53;;;;;;;16.91;100.00;99994.53;5050087;28;21076;-82
2021/08/03 08:15:06;;;;;;;0.40;0.30;;;;;;;16.88;100.00;99999.16;5039925;28;20478;-82
2021/08/03 08:17:32;;;;;;;0.40;0.20;;;;;;;17.09;100.00;99990.75;5050602;28;20485;-82
2021/08/03 08:19:59;;;;;;;0.40;0.27;;;;;;;16.98;100.00;99988.69;5045141;28;20497;-82
2021/08/03 08:22:26;;;;;;;0.40;0.40;;;;;;;17.18;100.00;99992.88;5052467;28;20450;-82
2021/08/03 08:24:52;;;;;;;0.40;0.20;;;;;;;17.11;100.00;99978.09;5035662;28;20471;-82
2021/08/03 08:27:19;;;;;;;0.40;0.20;;;;;;;17.26;100.00;99992.41;5048709;28;20509;-82
2021/08/03 08:29:45;;;;;;;2.13;1.90;;;;;;;17.12;100.00;100004.84;5035540;28;20452;-82
2021/08/03 08:32:12;;;;;;;0.40;0.40;;;;;;;16.94;100.00;99994.34;5038078;28;20483;-82
2021/08/03 08:34:39;;;;;;;0.40;0.20;;;;;;;17.26;100.00;100001.31;5055486;28;20497;-82
2021/08/03 08:37:05;;;;;;;3.90;1.13;;;;;;;17.32;100.00;100000.97;5053064;28;20446;-82
2021/08/03 08:39:32;;;;;;;0.70;0.70;;;;;;;17.30;100.00;100000.22;5045970;28;20829;-82
2021/08/03 08:41:59;;;;;;;0.47;0.37;;;;;;;17.34;100.00;100001.75;5040962;28;20505;-82
2021/08/03 08:44:25;;;;;;;1.33;0.67;;;;;;;17.44;100.00;99994.00;5044155;28;20536;-83
2021/08/03 08:46:54;;;;;;;0.40;0.20;;;;;;;17.30;100.00;99997.53;5039489;28;21002;-82
2021/08/03 08:49:22;;;;;;;0.40;0.30;;;;;;;17.18;100.00;99991.06;5046235;28;20449;-82
2021/08/03 08:51:50;;;;;;;0.40;0.30;;;;;;;17.16;100.00;99987.63;5055383;28;20496;-82
2021/08/03 08:54:16;;;;;;;2.10;1.17;;;;;;;17.36;100.00;99993.59;5043547;28;20510;-82
2021/08/03 08:56:43;;;;;;;0.40;0.20;;;;;;;17.38;100.00;99992.53;5048645;28;20455;-82
2021/08/03 08:59:09;;;;;;;0.40;0.30;;;;;;;17.44;100.00;99986.78;5036359;28;20490;-82
2021/08/03 09:01:36;;;;;;;0.40;0.20;;;;;;;17.32;100.00;99995.59;5054761;28;20517;-82
2021/08/03 09:04:05;;;;;;;0.40;0.20;;;;;;;17.63;100.00;99996.38;5043033;28;20468;-82
2021/08/03 09:06:32;;;;;;;0.40;0.20;;;;;;;17.63;100.00;100008.00;5056400;28;20451;-82
2021/08/03 09:09:12;;;;;;;0.40;0.20;;;;;;;17.69;100.00;100006.81;5042136;28;20459;-82
2021/08/03 09:11:47;;;;;;;0.40;0.20;;;;;;;17.68;100.00;100008.63;5024564;28;20545;-82
2021/08/03 09:14:37;;;;;;;0.40;0.20;;;;;;;17.61;100.00;100004.53;5048839;28;20843;-82
2021/08/03 09:17:05;;;;;;;0.67;0.50;;;;;;;17.62;100.00;99994.66;5049485;28;20450;-82
2021/08/03 09:19:40;;;;;;;0.40;0.30;;;;;;;17.50;100.00;99998.97;5054795;28;20463;-83
2021/08/03 09:22:21;;;;;;;0.70;0.40;;;;;;;17.56;100.00;100003.97;5040812;28;20486;-83
2021/08/03 09:24:51;;;;;;;0.40;0.20;;;;;;;17.57;100.00;100007.53;5054375;28;20477;-82
2021/08/03 09:27:37;;;;;;;1.13;0.87;;;;;;;17.51;100.00;100005.22;5037726;28;20490;-82
2021/08/03 09:30:07;;;;;;;0.40;0.20;;;;;;;17.58;100.00;100001.19;5046830;28;20475;-82
2021/08/03 09:32:36;;;;;;;0.40;0.20;;;;;;;17.55;100.00;100010.31;5049481;28;21017;-82
2021/08/03 09:35:13;;;;;;;0.50;0.50;;;;;;;17.52;100.00;99999.72;5035949;28;20442;-82
2021/08/03 09:37:42;;;;;;;0.40;0.30;;;;;;;17.39;100.00;100007.69;5034781;28;20443;-82
2021/08/03 09:40:25;;;;;;;0.40;0.20;;;;;;;17.77;100.00;100004.47;5036676;28;20455;-82
2021/08/03 09:43:08;;;;;;;3.13;1.70;;;;;;;17.80;100.00;99996.22;5041438;28;20428;-82
2021/08/03 09:45:55;;;;;;;0.40;0.20;;;;;;;18.23;100.00;99980.91;5042807;28;20894;-82
2021/08/03 09:48:24;;;;;;;0.40;0.20;;;;;;;18.27;100.00;99979.72;5050967;28;20454;-82
2021/08/03 09:51:08;;;;;;;0.40;0.20;;;;;;;18.53;100.00;99988.78;5043533;28;20505;-82
2021/08/03 09:53:34;;;;;;;0.40;0.20;;;;;;;18.79;100.00;99988.91;5032878;28;20557;-82
2021/08/03 09:56:01;;;;;;;0.40;0.30;;;;;;;18.76;100.00;99994.47;5043091;28;20447;-82
2021/08/03 09:58:28;;;;;;;0.40;0.20;;;;;;;18.84;100.00;99984.94;5045809;28;20497;-82
2021/08/03 10:00:54;;;;;;;0.40;0.20;;;;;;;18.99;100.00;99983.03;5046765;28;20458;-82
2021/08/03 10:03:23;;;;;;;0.40;0.20;;;;;;;19.22;100.00;99989.53;5040626;28;20554;-82
2021/08/03 10:05:50;;;;;;;0.40;0.30;;;;;;;19.17;100.00;99976.34;5052941;28;20470;-82
2021/08/03 10:08:17;;;;;;;0.40;0.20;;;;;;;19.20;100.00;99984.25;5027730;28;20451;-82
2021/08/03 10:10:44;;;;;;;0.40;0.20;;;;;;;19.15;100.00;99988.22;5040396;28;20968;-82
2021/08/03 10:13:11;;;;;;;0.40;0.20;;;;;;;19.43;100.00;99997.94;5045313;28;20488;-81
2021/08/03 10:15:40;;;;;;;0.40;0.20;;;;;;;19.48;100.00;99987.72;5038143;28;20553;-82
2021/08/03 10:18:06;;;;;;;0.50;0.30;;;;;;;19.76;100.00;99983.97;5047679;28;20478;-81
2021/08/03 10:20:44;;;;;;;0.40;0.30;;;;;;;19.56;100.00;99977.28;5035560;28;20953;-82
2021/08/03 10:23:11;;;;;;;0.40;0.30;;;;;;;19.53;100.00;99977.47;5042649;28;20422;-82
2021/08/03 10:25:43;;;;;;;0.40;0.20;;;;;;;19.88;100.00;99975.00;5045519;28;20476;-81
2021/08/03 10:28:26;;;;;;;0.60;0.60;;;;;;;19.46;100.00;99973.47;5032332;28;20467;-81
2021/08/03 10:30:54;;;;;;;0.40;0.20;;;;;;;19.65;99.26;99962.28;5046723;28;20901;-82
2021/08/03 10:33:42;;;;;;;0.40;0.20;;;;;;;19.26;100.00;99971.31;5034609;28;20958;-81
2021/08/03 10:36:41;;;;;;;0.50;0.30;;;;;;;19.17;100.00;99975.50;5057387;28;20504;-81
2021/08/03 10:39:18;;;;;;;0.40;0.20;;;;;;;18.88;100.00;99955.94;5033155;28;20455;-82
2021/08/03 10:42:00;;;;;;;0.40;0.20;;;;;;;19.38;100.00;99959.69;5042655;28;20439;-82
2021/08/03 10:44:43;;;;;;;0.40;0.20;;;;;;;19.08;100.00;99958.16;5052884;28;20500;-82
2021/08/03 10:47:36;;;;;;;0.50;0.30;;;;;;;19.20;100.00;99953.75;5030031;28;20928;-82
2021/08/03 10:50:07;;;;;;;0.40;0.20;;;;;;;18.73;100.00;99940.84;5036252;28;20467;-81
2021/08/03 10:52:46;;;;;;;0.40;0.20;;;;;;;18.74;100.00;99946.13;5047886;28;20461;-82
2021/08/03 10:55:34;;;;;;;0.40;0.20;;;;;;;18.81;100.00;99938.50;5042766;28;20552;-82
2021/08/03 10:58:10;;;;;;;0.60;0.60;;;;;;;19.08;100.00;99933.03;5050624;28;20500;-81
2021/08/03 11:00:47;;;;;;;0.40;0.30;;;;;;;19.28;100.00;99910.94;5051502;28;20458;-82
2021/08/03 11:03:32;;;;;;;2.53;0.70;;;;;;;19.56;100.00;99919.78;5043368;28;20530;-82
2021/08/03 11:06:11;;;;;;;0.40;0.20;;;;;;;19.64;99.80;99917.41;5055114;28;20435;-81
2021/08/03 11:08:47;;;;;;;0.40;0.20;;;;;;;19.67;97.93;99911.78;5048534;28;20932;-82
2021/08/03 11:11:21;;;;;;;0.40;0.20;;;;;;;20.09;99.83;99905.94;5044540;28;20496;-81
2021/08/03 11:14:05;;;;;;;0.40;0.20;;;;;;;20.24;95.91;99903.94;5055462;28;20524;-82
2021/08/03 11:16:31;;;;;;;0.40;0.20;;;;;;;20.55;93.59;99901.66;5047445;28;21021;-81
2021/08/03 11:19:03;;;;;;;0.40;0.20;;;;;;;20.66;94.25;99899.00;5048865;28;20438;-81
2021/08/03 11:21:37;;;;;;;0.40;0.20;;;;;;;20.81;90.42;99884.31;5045916;28;20501;-81
2021/08/03 11:24:05;;;;;;;0.40;0.20;;;;;;;21.18;91.32;99890.41;5048543;28;20513;-82
2021/08/03 11:26:39;;;;;;;0.40;0.20;;;;;;;21.38;90.34;99897.00;5044887;28;20917;-81
2021/08/03 11:29:12;;;;;;;0.40;0.20;;;;;;;21.64;88.80;99894.03;5023334;28;20426;-81
2021/08/03 11:31:50;;;;;;;0.40;0.20;;;;;;;21.93;85.20;99891.66;5033969;28;20459;-81
2021/08/03 11:34:35;;;;;;;0.40;0.20;;;;;;;21.76;85.85;99893.03;5027538;28;20446;-82